createdAt,value
2023-03-17T00:01:43.872Z,100.00
2023-03-17T00:04:12.610Z,100.00
2023-03-17T00:06:41.734Z,100.00
2023-03-17T00:09:12.816Z,100.00
2023-03-17T00:11:40.805Z,100.00
2023-03-17T00:14:08.381Z,100.00
2023-03-17T00:16:39.657Z,100.00
2023-03-17T00:19:12.824Z,100.00
2023-03-17T00:21:41.948Z,100.00
2023-03-17T00:24:14.722Z,100.00
2023-03-17T00:26:43.040Z,100.00
2023-03-17T00:29:10.755Z,100.00
2023-03-17T00:31:39.237Z,100.00
2023-03-17T00:34:07.255Z,100.00
2023-03-17T00:36:35.931Z,100.00
2023-03-17T00:41:40.261Z,100.00
2023-03-17T00:44:07.838Z,100.00
2023-03-17T00:46:37.015Z,100.00
2023-03-17T00:49:15.045Z,100.00
2023-03-17T00:51:43.472Z,100.00
2023-03-17T00:54:13.526Z,100.00
2023-03-17T00:56:42.253Z,100.00
2023-03-17T00:59:20.302Z,100.00
2023-03-17T01:01:48.258Z,100.00
2023-03-17T01:04:16.236Z,100.00
2023-03-17T01:06:44.030Z,100.00
2023-03-17T01:09:15.336Z,100.00
2023-03-17T01:11:43.097Z,100.00
2023-03-17T01:14:12.939Z,100.00
2023-03-17T01:16:41.150Z,100.00
2023-03-17T01:19:11.707Z,100.00
2023-03-17T01:21:39.508Z,100.00
2023-03-17T01:24:07.445Z,100.00
2023-03-17T01:26:37.042Z,100.00
2023-03-17T01:29:05.332Z,100.00
2023-03-17T01:31:33.122Z,100.00
2023-03-17T01:34:00.798Z,100.00
2023-03-17T01:36:28.563Z,100.00
2023-03-17T01:38:56.200Z,100.00
2023-03-17T01:41:24.024Z,100.00
2023-03-17T01:43:53.017Z,100.00
2023-03-17T01:46:25.284Z,100.00
2023-03-17T01:49:00.843Z,100.00
2023-03-17T01:51:36.507Z,100.00
2023-03-17T01:54:08.342Z,100.00
2023-03-17T01:56:40.178Z,100.00
2023-03-17T01:59:18.872Z,100.00
2023-03-17T02:01:52.491Z,100.00
2023-03-17T02:04:20.876Z,100.00
2023-03-17T02:06:57.973Z,100.00
2023-03-17T02:09:28.341Z,100.00
2023-03-17T02:11:59.920Z,100.00
2023-03-17T02:14:29.293Z,100.00
2023-03-17T02:16:56.908Z,100.00
2023-03-17T02:19:24.729Z,100.00
2023-03-17T02:21:56.173Z,100.00
2023-03-17T02:24:31.745Z,100.00
2023-03-17T02:27:05.159Z,100.00
2023-03-17T02:29:35.716Z,100.00
2023-03-17T02:32:04.199Z,100.00
2023-03-17T02:34:31.928Z,100.00
2023-03-17T02:37:00.993Z,100.00
2023-03-17T02:39:28.615Z,100.00
2023-03-17T02:41:56.290Z,100.00
2023-03-17T02:44:23.868Z,100.00
2023-03-17T02:46:51.455Z,100.00
2023-03-17T02:49:20.115Z,100.00
2023-03-17T02:51:47.740Z,100.00
2023-03-17T02:54:16.659Z,100.00
2023-03-17T02:56:44.531Z,100.00
2023-03-17T02:59:12.431Z,100.00
2023-03-17T03:01:40.116Z,100.00
2023-03-17T03:04:08.415Z,100.00
2023-03-17T03:06:36.413Z,100.00
2023-03-17T03:09:03.994Z,100.00
2023-03-17T03:11:32.937Z,100.00
2023-03-17T03:14:00.620Z,100.00
2023-03-17T03:16:28.170Z,100.00
2023-03-17T03:18:55.782Z,100.00
2023-03-17T03:21:23.382Z,100.00
2023-03-17T03:23:51.070Z,100.00
2023-03-17T03:26:18.754Z,100.00
2023-03-17T03:28:49.183Z,100.00
2023-03-17T03:31:17.130Z,100.00
2023-03-17T03:33:44.995Z,100.00
2023-03-17T03:36:12.666Z,100.00
2023-03-17T03:38:40.723Z,100.00
2023-03-17T03:41:08.675Z,100.00
2023-03-17T03:43:36.900Z,100.00
2023-03-17T03:46:05.942Z,100.00
2023-03-17T03:48:33.539Z,100.00
2023-03-17T03:51:02.621Z,100.00
2023-03-17T03:53:30.830Z,100.00
2023-03-17T03:55:58.457Z,100.00
2023-03-17T03:58:26.078Z,100.00
2023-03-17T04:00:53.905Z,100.00
2023-03-17T04:03:23.048Z,100.00
2023-03-17T04:05:50.714Z,100.00
2023-03-17T04:08:18.403Z,100.00
2023-03-17T04:10:46.352Z,100.00
2023-03-17T04:13:14.080Z,100.00
2023-03-17T04:15:41.824Z,100.00
2023-03-17T04:18:09.512Z,100.00
2023-03-17T04:20:38.529Z,100.00
2023-03-17T04:23:06.338Z,100.00
2023-03-17T04:25:33.899Z,100.00
2023-03-17T04:28:01.556Z,100.00
2023-03-17T04:30:29.468Z,100.00
2023-03-17T04:32:57.235Z,100.00
2023-03-17T04:35:24.828Z,100.00
2023-03-17T04:37:53.823Z,100.00
2023-03-17T04:40:21.554Z,100.00
2023-03-17T04:42:49.327Z,100.00
2023-03-17T04:45:17.171Z,100.00
2023-03-17T04:47:45.195Z,100.00
2023-03-17T04:50:14.165Z,100.00
2023-03-17T04:52:42.118Z,100.00
2023-03-17T04:55:11.307Z,100.00
2023-03-17T04:57:39.029Z,100.00
2023-03-17T05:00:08.832Z,100.00
2023-03-17T05:02:36.479Z,100.00
2023-03-17T05:05:04.637Z,100.00
2023-03-17T05:07:34.067Z,100.00
2023-03-17T05:10:01.784Z,100.00
2023-03-17T05:12:30.936Z,100.00
2023-03-17T05:14:58.688Z,100.00
2023-03-17T05:17:26.388Z,100.00
2023-03-17T05:19:53.925Z,100.00
2023-03-17T05:22:21.440Z,100.00
2023-03-17T05:24:48.961Z,100.00
2023-03-17T05:27:16.564Z,100.00
2023-03-17T05:29:45.639Z,100.00
2023-03-17T05:32:13.373Z,100.00
2023-03-17T05:34:40.949Z,100.00
2023-03-17T05:37:08.658Z,100.00
2023-03-17T05:39:36.456Z,100.00
2023-03-17T05:42:04.478Z,100.00
2023-03-17T05:44:32.333Z,100.00
2023-03-17T05:47:01.346Z,100.00
2023-03-17T05:49:29.193Z,100.00
2023-03-17T05:51:56.889Z,100.00
2023-03-17T05:54:24.652Z,100.00
2023-03-17T05:56:52.285Z,100.00
2023-03-17T05:59:19.840Z,100.00
2023-03-17T06:01:47.409Z,100.00
2023-03-17T06:04:16.397Z,100.00
2023-03-17T06:06:44.085Z,100.00
2023-03-17T06:09:11.638Z,100.00
2023-03-17T06:11:39.216Z,100.00
2023-03-17T06:14:06.786Z,100.00
2023-03-17T06:16:34.376Z,100.00
2023-03-17T06:19:01.958Z,100.00
2023-03-17T06:21:30.823Z,100.00
2023-03-17T06:23:58.416Z,100.00
2023-03-17T06:26:26.395Z,100.00
2023-03-17T06:28:54.158Z,100.00
2023-03-17T06:31:21.938Z,100.00
2023-03-17T06:33:49.996Z,100.00
2023-03-17T06:36:17.865Z,100.00
2023-03-17T06:38:46.922Z,100.00
2023-03-17T06:41:14.663Z,100.00
2023-03-17T06:43:42.310Z,100.00
2023-03-17T06:46:10.087Z,100.00
2023-03-17T06:48:37.759Z,100.00
2023-03-17T06:51:06.089Z,100.00
2023-03-17T06:53:33.749Z,100.00
2023-03-17T06:56:04.527Z,100.00
2023-03-17T06:58:32.218Z,100.00
2023-03-17T07:00:59.838Z,100.00
2023-03-17T07:03:27.867Z,100.00
2023-03-17T07:05:55.513Z,100.00
2023-03-17T07:08:23.299Z,100.00
2023-03-17T07:10:50.951Z,100.00
2023-03-17T07:13:19.890Z,100.00
2023-03-17T07:15:48.312Z,100.00
2023-03-17T07:18:16.178Z,100.00
2023-03-17T07:20:43.711Z,100.00
2023-03-17T07:23:15.784Z,100.00
2023-03-17T07:25:43.301Z,100.00
2023-03-17T07:28:11.151Z,100.00
2023-03-17T07:30:40.173Z,100.00
2023-03-17T07:33:07.848Z,100.00
2023-03-17T07:35:35.502Z,100.00
2023-03-17T07:38:03.276Z,100.00
2023-03-17T07:40:33.570Z,100.00
2023-03-17T07:43:02.861Z,100.00
2023-03-17T07:45:31.184Z,100.00
2023-03-17T07:48:00.335Z,100.00
2023-03-17T07:50:28.155Z,100.00
2023-03-17T07:52:55.714Z,100.00
2023-03-17T07:55:23.376Z,100.00
2023-03-17T07:57:51.239Z,100.00
2023-03-17T08:00:20.869Z,100.00
2023-03-17T08:03:03.104Z,100.00
2023-03-17T08:05:37.403Z,100.00
2023-03-17T08:08:05.434Z,100.00
2023-03-17T08:10:33.741Z,100.00
2023-03-17T08:13:01.764Z,100.00
2023-03-17T08:15:29.467Z,100.00
2023-03-17T08:17:57.050Z,100.00
2023-03-17T08:20:24.681Z,100.00
2023-03-17T08:22:53.631Z,100.00
2023-03-17T08:25:21.537Z,100.00
2023-03-17T08:27:49.233Z,100.00
2023-03-17T08:30:17.540Z,100.00
2023-03-17T08:32:45.184Z,100.00
2023-03-17T08:35:13.586Z,100.00
2023-03-17T08:37:41.302Z,100.00
2023-03-17T08:40:12.260Z,100.00
2023-03-17T08:42:40.090Z,100.00
2023-03-17T08:45:08.255Z,100.00
2023-03-17T08:47:36.671Z,100.00
2023-03-17T08:50:09.773Z,100.00
2023-03-17T08:52:37.409Z,100.00
2023-03-17T08:55:05.811Z,100.00
2023-03-17T08:57:34.947Z,100.00
2023-03-17T09:00:03.464Z,100.00
2023-03-17T09:02:31.129Z,100.00
2023-03-17T09:04:59.740Z,100.00
2023-03-17T09:07:27.282Z,100.00
2023-03-17T09:09:54.862Z,100.00
2023-03-17T09:12:22.763Z,98.64
2023-03-17T09:14:53.981Z,90.50
2023-03-17T09:17:22.016Z,95.90
2023-03-17T09:19:49.860Z,100.00
2023-03-17T09:22:18.547Z,83.57
2023-03-17T09:24:47.576Z,100.00
2023-03-17T09:27:15.135Z,100.00
2023-03-17T09:29:42.843Z,87.18
2023-03-17T09:32:11.991Z,90.19
2023-03-17T09:34:39.717Z,97.24
2023-03-17T09:37:07.412Z,94.13
2023-03-17T09:39:35.276Z,99.14
2023-03-17T09:42:20.916Z,87.02
2023-03-17T09:45:06.376Z,86.80
2023-03-17T09:47:56.114Z,100.00
2023-03-17T09:50:27.862Z,95.60
2023-03-17T09:52:57.847Z,90.49
2023-03-17T09:55:28.912Z,76.34
2023-03-17T09:57:58.462Z,79.57
2023-03-17T10:00:28.264Z,84.63
2023-03-17T10:02:58.618Z,100.00
2023-03-17T10:05:28.232Z,100.00
2023-03-17T10:08:06.331Z,100.00
2023-03-17T10:10:45.114Z,100.00
2023-03-17T10:13:28.366Z,92.64
2023-03-17T10:16:03.127Z,100.00
2023-03-17T10:18:43.750Z,100.00
2023-03-17T10:21:18.716Z,82.93
2023-03-17T10:23:46.441Z,63.13
2023-03-17T10:26:29.203Z,57.61
2023-03-17T10:28:56.799Z,62.36
2023-03-17T10:31:29.254Z,71.50
2023-03-17T10:34:12.104Z,73.26
2023-03-17T10:36:43.532Z,86.75
2023-03-17T10:39:14.840Z,86.07
2023-03-17T10:41:53.898Z,79.45
2023-03-17T10:44:29.638Z,72.13
2023-03-17T10:46:57.353Z,69.75
2023-03-17T10:49:26.300Z,68.63
2023-03-17T10:51:54.456Z,71.98
2023-03-17T10:54:25.462Z,67.31
2023-03-17T10:57:01.448Z,100.00
2023-03-17T11:02:17.769Z,100.00
2023-03-17T11:04:46.743Z,100.00
2023-03-17T11:07:17.947Z,100.00
2023-03-17T11:09:49.285Z,100.00
2023-03-17T11:12:24.582Z,100.00
2023-03-17T11:14:57.589Z,100.00
2023-03-17T11:17:38.308Z,84.60
2023-03-17T11:20:31.128Z,60.80
2023-03-17T11:23:06.699Z,55.84
2023-03-17T11:25:41.972Z,70.11
2023-03-17T11:28:19.749Z,62.75
2023-03-17T11:31:05.029Z,69.07
2023-03-17T11:33:39.317Z,82.86
2023-03-17T11:36:24.279Z,100.00
2023-03-17T11:39:00.462Z,100.00
2023-03-17T11:41:45.916Z,100.00
2023-03-17T11:44:51.345Z,100.00
2023-03-17T11:47:34.773Z,100.00
2023-03-17T11:50:16.728Z,100.00
2023-03-17T11:53:01.145Z,100.00
2023-03-17T11:55:41.583Z,100.00
2023-03-17T11:58:22.443Z,100.00
2023-03-17T12:00:55.778Z,100.00
2023-03-17T12:03:31.912Z,100.00
2023-03-17T12:06:04.980Z,100.00
2023-03-17T12:08:41.611Z,100.00
2023-03-17T12:11:14.679Z,100.00
2023-03-17T12:13:48.050Z,100.00
2023-03-17T12:16:23.072Z,100.00
2023-03-17T12:19:01.510Z,100.00
2023-03-17T12:21:36.527Z,100.00
2023-03-17T12:24:14.943Z,100.00
2023-03-17T12:26:55.516Z,100.00
2023-03-17T12:29:32.086Z,100.00
2023-03-17T12:32:06.785Z,100.00
2023-03-17T12:34:45.213Z,100.00
2023-03-17T12:37:12.856Z,100.00
2023-03-17T12:39:55.275Z,100.00
2023-03-17T12:42:37.127Z,100.00
2023-03-17T12:45:35.502Z,100.00
2023-03-17T12:48:36.925Z,100.00
2023-03-17T12:51:40.548Z,100.00
2023-03-17T12:54:14.087Z,82.82
2023-03-17T12:56:48.921Z,61.77
2023-03-17T12:59:21.727Z,58.56
2023-03-17T13:01:56.663Z,60.45
2023-03-17T13:04:27.301Z,53.73
2023-03-17T13:07:04.226Z,55.90
2023-03-17T13:09:43.573Z,99.68
2023-03-17T13:13:02.696Z,92.44
2023-03-17T13:15:51.452Z,82.54
2023-03-17T13:19:05.670Z,86.27
2023-03-17T13:21:36.292Z,100.00
2023-03-17T13:24:42.589Z,100.00
2023-03-17T13:27:12.503Z,100.00
2023-03-17T13:29:44.349Z,100.00
2023-03-17T13:32:36.075Z,100.00
2023-03-17T13:35:37.207Z,100.00
2023-03-17T13:38:32.711Z,100.00
2023-03-17T13:41:27.077Z,100.00
2023-03-17T13:44:24.134Z,100.00
2023-03-17T13:46:52.302Z,100.00
2023-03-17T13:49:28.854Z,100.00
2023-03-17T13:52:03.205Z,100.00
2023-03-17T13:54:34.222Z,100.00
2023-03-17T13:57:25.474Z,100.00
2023-03-17T14:00:20.281Z,100.00
2023-03-17T14:02:51.871Z,100.00
2023-03-17T14:05:27.005Z,100.00
2023-03-17T14:07:59.387Z,100.00
2023-03-17T14:10:31.036Z,100.00
2023-03-17T14:13:13.211Z,100.00
2023-03-17T14:15:50.523Z,100.00
2023-03-17T14:18:20.346Z,100.00
2023-03-17T14:20:57.653Z,100.00
2023-03-17T14:23:25.965Z,100.00
2023-03-17T14:25:57.383Z,93.05
2023-03-17T14:28:28.339Z,85.04
2023-03-17T14:31:00.003Z,82.09
2023-03-17T14:33:29.481Z,79.95
2023-03-17T14:36:00.406Z,79.28
2023-03-17T14:38:30.484Z,81.93
2023-03-17T14:41:05.786Z,81.96
2023-03-17T14:43:36.434Z,75.98
2023-03-17T14:46:05.932Z,72.05
2023-03-17T14:48:36.702Z,73.92
2023-03-17T14:51:09.714Z,65.82
2023-03-17T14:53:41.427Z,62.60
2023-03-17T14:56:09.917Z,60.68
2023-03-17T14:58:41.746Z,58.40
2023-03-17T15:01:16.584Z,58.41
2023-03-17T15:03:55.317Z,61.06
2023-03-17T15:06:27.581Z,65.29
2023-03-17T15:08:58.211Z,67.88
2023-03-17T15:11:35.973Z,72.11
2023-03-17T15:14:12.412Z,75.07
2023-03-17T15:16:47.389Z,77.22
2023-03-17T15:19:22.806Z,69.72
2023-03-17T15:21:52.065Z,77.36
2023-03-17T15:24:25.201Z,83.79
2023-03-17T15:26:59.848Z,92.52
2023-03-17T15:29:28.452Z,95.99
2023-03-17T15:32:03.079Z,85.76
2023-03-17T15:34:30.995Z,80.15
2023-03-17T15:37:00.165Z,85.25
2023-03-17T15:39:27.751Z,90.71
2023-03-17T15:41:55.477Z,85.24
2023-03-17T15:44:23.081Z,78.85
2023-03-17T15:46:50.987Z,74.65
2023-03-17T15:49:18.896Z,73.18
2023-03-17T15:51:46.516Z,71.38
2023-03-17T15:54:15.535Z,70.21
2023-03-17T15:56:43.084Z,68.42
2023-03-17T15:59:10.974Z,67.99
2023-03-17T16:01:39.416Z,68.16
2023-03-17T16:04:08.364Z,64.82
2023-03-17T16:06:36.064Z,60.71
2023-03-17T16:09:05.741Z,62.28
2023-03-17T16:11:34.939Z,64.63
2023-03-17T16:14:03.607Z,72.78
2023-03-17T16:16:36.568Z,76.17
2023-03-17T16:19:05.672Z,75.88
2023-03-17T16:21:33.351Z,77.99
2023-03-17T16:24:01.005Z,79.21
2023-03-17T16:26:28.994Z,79.19
2023-03-17T16:28:57.970Z,86.79
2023-03-17T16:31:28.157Z,87.43
2023-03-17T16:33:56.858Z,85.40
2023-03-17T16:36:25.558Z,80.21
2023-03-17T16:38:53.283Z,74.88
2023-03-17T16:41:23.581Z,72.75
2023-03-17T16:43:54.001Z,72.94
2023-03-17T16:46:23.650Z,74.76
2023-03-17T16:48:51.691Z,74.16
2023-03-17T16:51:22.117Z,71.58
2023-03-17T16:53:50.151Z,71.80
2023-03-17T16:56:21.752Z,71.77
2023-03-17T16:58:49.543Z,68.35
2023-03-17T17:01:21.048Z,66.06
2023-03-17T17:03:50.028Z,65.00
2023-03-17T17:06:19.562Z,61.86
2023-03-17T17:08:49.609Z,59.35
2023-03-17T17:11:19.482Z,64.78
2023-03-17T17:13:49.630Z,85.36
2023-03-17T17:16:22.914Z,100.00
2023-03-17T17:18:51.965Z,100.00
2023-03-17T17:21:19.583Z,100.00
2023-03-17T17:23:50.554Z,100.00
2023-03-17T17:26:20.773Z,100.00
2023-03-17T17:28:48.901Z,100.00
2023-03-17T17:31:16.693Z,100.00
2023-03-17T17:33:44.600Z,100.00
2023-03-17T17:36:16.359Z,100.00
2023-03-17T17:38:44.348Z,98.40
2023-03-17T17:41:14.041Z,98.98
2023-03-17T17:43:41.669Z,100.00
2023-03-17T17:46:17.277Z,100.00
2023-03-17T17:48:45.362Z,93.71
2023-03-17T17:51:15.029Z,87.13
2023-03-17T17:53:45.521Z,81.78
2023-03-17T17:56:14.965Z,80.71
2023-03-17T17:58:45.334Z,78.17
2023-03-17T18:01:13.679Z,77.85
2023-03-17T18:03:41.608Z,77.87
2023-03-17T18:06:10.154Z,78.33
2023-03-17T18:08:40.360Z,77.85
2023-03-17T18:11:08.420Z,77.21
2023-03-17T18:13:36.104Z,76.61
2023-03-17T18:16:05.319Z,73.35
2023-03-17T18:18:32.842Z,70.87
2023-03-17T18:21:00.451Z,70.10
2023-03-17T18:23:28.378Z,67.80
2023-03-17T18:26:01.134Z,69.72
2023-03-17T18:28:29.122Z,67.32
2023-03-17T18:31:04.837Z,67.37
2023-03-17T18:33:33.224Z,64.47
2023-03-17T18:36:02.409Z,69.77
2023-03-17T18:38:31.221Z,85.63
2023-03-17T18:41:00.728Z,84.77
2023-03-17T18:43:28.552Z,84.85
2023-03-17T18:45:56.585Z,90.63
2023-03-17T18:48:24.543Z,96.29
2023-03-17T18:50:52.282Z,100.00
2023-03-17T18:53:19.962Z,100.00
2023-03-17T18:55:50.081Z,100.00
2023-03-17T18:58:20.762Z,100.00
2023-03-17T19:00:49.510Z,100.00
2023-03-17T19:03:17.402Z,100.00
2023-03-17T19:05:44.976Z,100.00
2023-03-17T19:08:12.495Z,100.00
2023-03-17T19:10:43.252Z,81.79
2023-03-17T19:13:10.894Z,71.66
2023-03-17T19:15:42.038Z,75.43
2023-03-17T19:18:09.992Z,68.12
2023-03-17T19:20:37.566Z,65.37
2023-03-17T19:23:06.194Z,72.96
2023-03-17T19:25:34.250Z,69.59
2023-03-17T19:28:02.021Z,68.55
2023-03-17T19:30:29.843Z,71.71
2023-03-17T19:32:59.081Z,73.70
2023-03-17T19:35:26.771Z,75.33
2023-03-17T19:37:55.728Z,68.50
2023-03-17T19:40:23.620Z,69.83
2023-03-17T19:42:51.226Z,70.73
2023-03-17T19:45:18.753Z,70.17
2023-03-17T19:47:46.349Z,76.11
2023-03-17T19:50:15.611Z,76.62
2023-03-17T19:52:43.157Z,71.71
2023-03-17T19:55:11.689Z,76.68
2023-03-17T19:57:39.281Z,79.07
2023-03-17T20:00:09.105Z,81.53
2023-03-17T20:02:36.735Z,80.79
2023-03-17T20:05:05.118Z,80.68
2023-03-17T20:07:34.865Z,84.10
2023-03-17T20:10:03.570Z,76.93
2023-03-17T20:12:31.157Z,77.00
2023-03-17T20:14:58.722Z,73.98
2023-03-17T20:17:27.017Z,73.39
2023-03-17T20:19:54.650Z,67.69
2023-03-17T20:22:22.397Z,67.96
2023-03-17T20:24:51.277Z,75.51
2023-03-17T20:27:21.598Z,85.89
2023-03-17T20:29:49.184Z,95.19
2023-03-17T20:32:18.383Z,95.53
2023-03-17T20:34:45.911Z,93.13
2023-03-17T20:37:13.481Z,91.11
2023-03-17T20:39:41.116Z,96.28
2023-03-17T20:42:15.247Z,100.00
2023-03-17T20:44:43.189Z,98.46
2023-03-17T20:47:13.200Z,94.80
2023-03-17T20:49:40.818Z,99.87
2023-03-17T20:52:12.877Z,92.07
2023-03-17T20:54:40.594Z,94.29
2023-03-17T20:57:12.903Z,98.90
2023-03-17T20:59:40.773Z,100.00
2023-03-17T21:02:14.457Z,100.00
2023-03-17T21:04:42.168Z,100.00
2023-03-17T21:07:09.801Z,100.00
2023-03-17T21:09:37.431Z,100.00
2023-03-17T21:12:05.152Z,100.00
2023-03-17T21:14:34.112Z,100.00
2023-03-17T21:17:01.766Z,100.00
2023-03-17T21:19:32.354Z,100.00
2023-03-17T21:22:00.098Z,100.00
2023-03-17T21:24:30.571Z,100.00
2023-03-17T21:27:00.718Z,100.00
2023-03-17T21:29:30.257Z,100.00
2023-03-17T21:31:59.719Z,100.00
2023-03-17T21:34:29.030Z,100.00
2023-03-17T21:36:57.569Z,100.00
2023-03-17T21:39:29.596Z,100.00
2023-03-17T21:41:57.501Z,100.00
2023-03-17T21:44:25.170Z,100.00
2023-03-17T21:46:53.781Z,100.00
2023-03-17T21:49:23.232Z,100.00
2023-03-17T21:51:51.752Z,100.00
2023-03-17T21:54:19.402Z,100.00
2023-03-17T21:56:47.273Z,100.00
2023-03-17T21:59:15.320Z,100.00
2023-03-17T22:01:43.092Z,100.00
2023-03-17T22:04:11.908Z,100.00
2023-03-17T22:06:41.018Z,100.00
2023-03-17T22:09:09.413Z,100.00
2023-03-17T22:11:37.311Z,100.00
2023-03-17T22:14:04.898Z,100.00
2023-03-17T22:16:32.673Z,95.67
2023-03-17T22:19:00.359Z,96.68
2023-03-17T22:21:27.994Z,87.75
2023-03-17T22:23:57.122Z,85.16
2023-03-17T22:26:24.690Z,85.24
2023-03-17T22:28:52.404Z,84.84
2023-03-17T22:31:22.146Z,84.85
2023-03-17T22:33:53.427Z,89.88
2023-03-17T22:36:21.978Z,84.04
2023-03-17T22:38:49.760Z,82.18
2023-03-17T22:41:22.161Z,82.62
2023-03-17T22:43:50.715Z,82.63
2023-03-17T22:46:19.406Z,79.02
2023-03-17T22:48:47.847Z,77.03
2023-03-17T22:51:18.216Z,77.73
2023-03-17T22:53:46.766Z,77.50
2023-03-17T22:56:16.439Z,81.04
2023-03-17T22:58:46.027Z,80.16
2023-03-17T23:01:18.175Z,80.81
2023-03-17T23:03:46.109Z,83.12
2023-03-17T23:06:15.073Z,85.81
2023-03-17T23:08:44.074Z,90.05
2023-03-17T23:11:14.862Z,94.51
2023-03-17T23:13:43.223Z,92.39
2023-03-17T23:16:13.060Z,93.55
2023-03-17T23:18:41.290Z,99.89
2023-03-17T23:21:09.560Z,100.00
2023-03-17T23:23:38.415Z,100.00
2023-03-17T23:26:06.154Z,100.00
2023-03-17T23:28:33.786Z,100.00
2023-03-17T23:31:02.896Z,100.00
2023-03-17T23:33:31.895Z,100.00
2023-03-17T23:35:59.538Z,100.00
2023-03-17T23:38:27.219Z,100.00
2023-03-17T23:40:56.823Z,100.00
2023-03-17T23:43:24.534Z,100.00
2023-03-17T23:45:53.335Z,100.00
2023-03-17T23:48:21.637Z,100.00
2023-03-17T23:50:53.140Z,100.00
2023-03-17T23:53:23.229Z,100.00
2023-03-17T23:55:52.234Z,100.00
2023-03-17T23:58:20.706Z,100.00
